createdAt,value
2019-02-23T00:00:42.449Z,99.90
2019-02-23T00:03:11.856Z,99.90
2019-02-23T00:05:41.278Z,99.90
2019-02-23T00:08:10.680Z,99.90
2019-02-23T00:10:40.089Z,99.90
2019-02-23T00:13:09.524Z,99.90
2019-02-23T00:15:39.000Z,99.90
2019-02-23T00:18:09.410Z,99.90
2019-02-23T00:20:38.895Z,99.90
2019-02-23T00:23:08.278Z,99.90
2019-02-23T00:25:37.662Z,99.90
2019-02-23T00:28:07.023Z,99.90
2019-02-23T00:30:36.494Z,99.90
2019-02-23T00:33:05.865Z,99.90
2019-02-23T00:35:35.261Z,99.90
2019-02-23T00:38:04.635Z,99.90
2019-02-23T00:40:34.004Z,99.90
2019-02-23T00:43:03.366Z,99.90
2019-02-23T00:45:32.748Z,99.90
2019-02-23T00:48:02.136Z,99.90
2019-02-23T00:50:50.761Z,99.90
2019-02-23T00:53:21.118Z,99.90
2019-02-23T00:55:50.504Z,99.90
2019-02-23T00:58:19.985Z,99.90
2019-02-23T01:00:49.348Z,99.90
2019-02-23T01:03:18.709Z,99.90
2019-02-23T01:05:48.108Z,99.90
2019-02-23T01:08:17.511Z,99.90
2019-02-23T01:10:57.501Z,99.90
2019-02-23T01:13:17.990Z,99.90
2019-02-23T01:15:47.368Z,99.90
2019-02-23T01:18:16.738Z,99.90
2019-02-23T01:20:46.128Z,99.90
2019-02-23T01:23:15.504Z,99.90
2019-02-23T01:25:44.911Z,99.90
2019-02-23T01:28:14.297Z,99.90
2019-02-23T01:30:43.665Z,99.90
2019-02-23T01:33:13.149Z,99.90
2019-02-23T01:35:42.525Z,99.90
2019-02-23T01:38:12.017Z,99.90
2019-02-23T01:40:41.527Z,99.90
2019-02-23T01:43:10.916Z,99.90
2019-02-23T01:45:42.586Z,99.90
2019-02-23T01:48:11.373Z,99.90
2019-02-23T01:50:40.764Z,99.90
2019-02-23T01:53:10.141Z,99.90
2019-02-23T01:55:39.515Z,99.90
2019-02-23T01:58:08.955Z,99.90
2019-02-23T02:00:39.784Z,99.90
2019-02-23T02:03:09.317Z,99.90
2019-02-23T02:05:40.502Z,99.90
2019-02-23T02:08:09.934Z,99.90
2019-02-23T02:10:39.377Z,99.90
2019-02-23T02:13:08.765Z,99.90
2019-02-23T02:15:38.306Z,99.90
2019-02-23T02:18:07.689Z,99.90
2019-02-23T02:20:37.043Z,99.90
2019-02-23T02:23:06.436Z,99.90
2019-02-23T02:25:35.831Z,99.90
2019-02-23T02:28:05.219Z,99.90
2019-02-23T02:30:34.606Z,99.90
2019-02-23T02:33:03.994Z,99.90
2019-02-23T02:35:33.495Z,99.90
2019-02-23T02:38:02.919Z,99.90
2019-02-23T02:40:33.988Z,99.90
2019-02-23T02:43:03.353Z,99.90
2019-02-23T02:45:32.728Z,99.90
2019-02-23T02:48:02.126Z,99.90
2019-02-23T02:50:31.509Z,99.90
2019-02-23T02:53:00.966Z,99.90
2019-02-23T02:55:30.335Z,99.90
2019-02-23T02:57:59.731Z,99.90
2019-02-23T03:00:32.313Z,99.90
2019-02-23T03:03:01.721Z,99.90
2019-02-23T03:05:31.023Z,99.90
2019-02-23T03:08:00.390Z,99.90
2019-02-23T03:10:29.840Z,99.90
2019-02-23T03:12:59.222Z,99.90
2019-02-23T03:15:28.624Z,99.90
2019-02-23T03:17:57.995Z,99.90
2019-02-23T03:20:36.163Z,99.90
2019-02-23T03:22:58.442Z,99.90
2019-02-23T03:25:27.831Z,99.90
2019-02-23T03:27:57.195Z,99.90
2019-02-23T03:30:26.666Z,99.90
2019-02-23T03:32:56.266Z,99.90
2019-02-23T03:35:25.719Z,99.90
2019-02-23T03:37:55.200Z,99.90
2019-02-23T03:40:24.562Z,99.90
2019-02-23T03:42:53.974Z,99.90
2019-02-23T03:45:23.460Z,99.90
2019-02-23T03:47:52.857Z,99.90
2019-02-23T03:50:22.253Z,99.90
2019-02-23T03:52:51.709Z,99.90
2019-02-23T03:55:21.106Z,99.90
2019-02-23T03:57:50.481Z,99.90
2019-02-23T04:00:21.172Z,99.90
2019-02-23T04:02:50.538Z,99.90
2019-02-23T04:05:19.926Z,99.90
2019-02-23T04:07:49.308Z,99.90
2019-02-23T04:10:18.686Z,99.90
2019-02-23T04:12:48.068Z,99.90
2019-02-23T04:15:17.460Z,99.90
2019-02-23T04:17:46.841Z,99.90
2019-02-23T04:20:16.211Z,99.90
2019-02-23T04:22:45.631Z,99.90
2019-02-23T04:25:15.012Z,99.90
2019-02-23T04:27:45.149Z,99.90
2019-02-23T04:30:14.616Z,99.90
2019-02-23T04:32:43.974Z,99.90
2019-02-23T04:35:13.389Z,99.90
2019-02-23T04:37:42.816Z,99.90
2019-02-23T04:40:12.250Z,99.90
2019-02-23T04:42:41.662Z,99.90
2019-02-23T04:45:11.136Z,99.90
2019-02-23T04:47:40.530Z,99.90
2019-02-23T04:50:10.846Z,99.90
2019-02-23T04:52:40.214Z,99.90
2019-02-23T04:55:09.955Z,99.90
2019-02-23T04:57:39.399Z,99.90
2019-02-23T05:00:11.936Z,99.90
2019-02-23T05:02:41.318Z,99.90
2019-02-23T05:05:11.034Z,99.90
2019-02-23T05:07:40.418Z,99.90
2019-02-23T05:10:09.996Z,99.90
2019-02-23T05:12:39.367Z,99.90
2019-02-23T05:15:10.124Z,99.90
2019-02-23T05:17:39.503Z,99.90
2019-02-23T05:20:08.888Z,99.90
2019-02-23T05:22:38.268Z,99.90
2019-02-23T05:25:07.708Z,99.90
2019-02-23T05:27:37.079Z,99.90
2019-02-23T05:30:09.624Z,99.90
2019-02-23T05:32:39.007Z,99.90
2019-02-23T05:35:11.047Z,99.90
2019-02-23T05:37:40.433Z,99.90
2019-02-23T05:40:11.932Z,99.90
2019-02-23T05:42:41.337Z,99.90
2019-02-23T05:45:11.573Z,99.90
2019-02-23T05:47:41.043Z,99.90
2019-02-23T05:50:10.426Z,99.90
2019-02-23T05:52:39.798Z,99.90
2019-02-23T05:55:09.256Z,99.90
2019-02-23T05:57:38.658Z,99.90
2019-02-23T06:00:11.447Z,99.90
2019-02-23T06:02:40.960Z,99.90
2019-02-23T06:05:10.414Z,99.90
2019-02-23T06:07:39.788Z,99.90
2019-02-23T06:10:09.999Z,99.90
2019-02-23T06:12:39.360Z,99.90
2019-02-23T06:15:11.506Z,99.90
2019-02-23T06:17:40.860Z,99.90
2019-02-23T06:20:10.382Z,99.90
2019-02-23T06:22:39.745Z,99.90
2019-02-23T06:25:09.559Z,99.90
2019-02-23T06:27:38.940Z,99.90
2019-02-23T06:30:11.373Z,99.90
2019-02-23T06:32:40.808Z,99.90
2019-02-23T06:35:10.659Z,99.90
2019-02-23T06:37:40.065Z,99.90
2019-02-23T06:40:10.783Z,99.90
2019-02-23T06:42:40.266Z,99.90
2019-02-23T06:45:11.550Z,99.90
2019-02-23T06:47:41.062Z,99.90
2019-02-23T06:50:10.481Z,99.90
2019-02-23T06:52:39.856Z,99.90
2019-02-23T06:55:09.254Z,99.90
2019-02-23T06:57:38.615Z,99.90
2019-02-23T07:00:11.116Z,99.90
2019-02-23T07:02:40.407Z,99.90
2019-02-23T07:05:09.871Z,99.90
2019-02-23T07:07:39.521Z,99.90
2019-02-23T07:10:11.990Z,99.90
2019-02-23T07:12:41.394Z,99.90
2019-02-23T07:15:11.203Z,99.90
2019-02-23T07:17:40.607Z,99.90
2019-02-23T07:20:10.997Z,99.90
2019-02-23T07:22:40.463Z,99.90
2019-02-23T07:25:10.655Z,99.90
2019-02-23T07:27:40.016Z,99.90
2019-02-23T07:30:11.962Z,99.90
2019-02-23T07:32:41.331Z,99.90
2019-02-23T07:35:10.889Z,99.90
2019-02-23T07:37:40.317Z,99.90
2019-02-23T07:40:12.220Z,99.90
2019-02-23T07:42:41.639Z,99.90
2019-02-23T07:45:11.783Z,99.90
2019-02-23T07:47:41.332Z,99.90
2019-02-23T07:50:13.487Z,99.90
2019-02-23T07:52:42.866Z,99.90
2019-02-23T07:55:12.767Z,99.90
2019-02-23T07:57:42.379Z,99.90
2019-02-23T08:00:13.543Z,99.90
2019-02-23T08:02:43.149Z,99.90
2019-02-23T08:05:12.647Z,99.90
2019-02-23T08:07:42.035Z,99.90
2019-02-23T08:10:12.794Z,99.90
2019-02-23T08:12:42.257Z,99.90
2019-02-23T08:15:12.402Z,99.90
2019-02-23T08:17:41.795Z,99.90
2019-02-23T08:20:12.696Z,99.90
2019-02-23T08:22:42.124Z,99.90
2019-02-23T08:25:13.605Z,99.90
2019-02-23T08:27:43.065Z,99.90
2019-02-23T08:30:17.298Z,99.90
2019-02-23T08:32:47.066Z,99.90
2019-02-23T08:35:16.481Z,99.90
2019-02-23T08:37:45.929Z,99.90
2019-02-23T08:40:27.790Z,99.90
2019-02-23T08:42:57.185Z,99.90
2019-02-23T08:45:26.568Z,99.90
2019-02-23T08:47:56.487Z,99.90
2019-02-23T08:50:26.041Z,99.90
2019-02-23T08:52:55.502Z,99.90
2019-02-23T08:55:24.912Z,99.90
2019-02-23T08:57:54.285Z,99.90
2019-02-23T09:00:23.691Z,99.90
2019-02-23T09:02:53.066Z,99.90
2019-02-23T09:05:22.448Z,99.90
2019-02-23T09:07:51.859Z,99.90
2019-02-23T09:10:21.241Z,99.90
2019-02-23T09:12:50.653Z,99.90
2019-02-23T09:15:22.122Z,99.90
2019-02-23T09:17:51.159Z,99.90
2019-02-23T09:20:28.625Z,99.90
2019-02-23T09:22:59.702Z,99.90
2019-02-23T09:25:26.685Z,99.90
2019-02-23T09:27:58.772Z,99.90
2019-02-23T09:30:28.139Z,99.90
2019-02-23T09:32:57.502Z,99.90
2019-02-23T09:35:27.062Z,99.90
2019-02-23T09:37:56.436Z,99.90
2019-02-23T09:40:25.824Z,99.90
2019-02-23T09:42:56.686Z,99.90
2019-02-23T09:45:37.879Z,99.90
2019-02-23T09:48:07.313Z,99.90
2019-02-23T09:50:36.690Z,99.90
2019-02-23T09:53:11.348Z,99.90
2019-02-23T09:55:37.143Z,99.90
2019-02-23T09:58:06.553Z,99.90
2019-02-23T10:00:35.912Z,99.90
2019-02-23T10:03:05.370Z,99.90
2019-02-23T10:05:34.819Z,99.90
2019-02-23T10:08:04.182Z,99.90
2019-02-23T10:10:33.586Z,99.90
2019-02-23T10:13:05.438Z,99.90
2019-02-23T10:15:34.900Z,99.90
2019-02-23T10:18:04.341Z,99.90
2019-02-23T10:20:33.734Z,99.90
2019-02-23T10:23:03.481Z,99.90
2019-02-23T10:25:32.864Z,99.90
2019-02-23T10:28:02.341Z,99.90
2019-02-23T10:30:31.720Z,99.90
2019-02-23T10:33:01.129Z,99.90
2019-02-23T10:35:30.479Z,99.90
2019-02-23T10:37:59.850Z,99.90
2019-02-23T10:40:29.230Z,99.90
2019-02-23T10:42:58.607Z,99.90
2019-02-23T10:45:28.006Z,99.90
2019-02-23T10:47:57.463Z,99.90
2019-02-23T10:50:26.838Z,99.90
2019-02-23T10:52:56.300Z,99.90
2019-02-23T10:55:25.719Z,99.90
2019-02-23T10:57:55.124Z,99.90
2019-02-23T11:00:25.091Z,99.90
2019-02-23T11:02:54.555Z,99.90
2019-02-23T11:05:24.010Z,99.90
2019-02-23T11:07:53.398Z,99.90
2019-02-23T11:10:23.319Z,99.90
2019-02-23T11:12:52.786Z,96.80
2019-02-23T11:15:22.632Z,92.50
2019-02-23T11:17:52.021Z,85.40
2019-02-23T11:20:22.154Z,79.50
2019-02-23T11:22:51.629Z,72.50
2019-02-23T11:25:21.002Z,68.90
2019-02-23T11:27:50.400Z,63.70
2019-02-23T11:30:19.856Z,59.20
2019-02-23T11:32:49.271Z,58.60
2019-02-23T11:35:18.710Z,61.10
2019-02-23T11:37:48.082Z,58.10
2019-02-23T11:40:17.574Z,56.90
2019-02-23T11:42:46.968Z,54.90
2019-02-23T11:45:16.364Z,57.80
2019-02-23T11:47:45.815Z,59.60
2019-02-23T11:50:15.536Z,59.10
2019-02-23T11:52:44.922Z,57.20
2019-02-23T11:55:14.404Z,56.60
2019-02-23T11:57:43.791Z,56.60
2019-02-23T12:00:14.411Z,54.90
2019-02-23T12:02:52.024Z,57.60
2019-02-23T12:05:14.899Z,55.80
2019-02-23T12:07:44.302Z,54.50
2019-02-23T12:10:15.239Z,53.30
2019-02-23T12:12:44.694Z,51.70
2019-02-23T12:15:14.302Z,51.20
2019-02-23T12:17:43.762Z,52.20
2019-02-23T12:20:13.349Z,53.00
2019-02-23T12:22:42.802Z,55.10
2019-02-23T12:25:15.759Z,57.00
2019-02-23T12:27:43.261Z,56.20
2019-02-23T12:30:14.024Z,52.10
2019-02-23T12:32:43.439Z,49.60
2019-02-23T12:35:12.813Z,46.20
2019-02-23T12:37:42.283Z,45.40
2019-02-23T12:40:12.045Z,44.40
2019-02-23T12:42:41.503Z,46.40
2019-02-23T12:45:12.443Z,46.90
2019-02-23T12:47:41.844Z,45.50
2019-02-23T12:50:12.831Z,48.00
2019-02-23T12:52:42.302Z,47.20
2019-02-23T12:55:12.194Z,45.80
2019-02-23T12:57:41.585Z,45.50
2019-02-23T13:00:14.746Z,45.30
2019-02-23T13:02:44.214Z,45.30
2019-02-23T13:05:14.080Z,46.70
2019-02-23T13:07:43.456Z,45.80
2019-02-23T13:10:13.492Z,46.00
2019-02-23T13:12:46.030Z,45.80
2019-02-23T13:15:21.353Z,45.50
2019-02-23T13:18:02.483Z,45.60
2019-02-23T13:20:59.082Z,46.10
2019-02-23T13:23:40.751Z,46.80
2019-02-23T13:26:18.997Z,47.00
2019-02-23T13:28:57.137Z,45.90
2019-02-23T13:31:35.326Z,44.90
2019-02-23T13:34:07.766Z,43.90
2019-02-23T13:36:48.932Z,42.80
2019-02-23T13:39:30.368Z,42.80
2019-02-23T13:42:17.812Z,42.40
2019-02-23T13:45:01.582Z,41.20
2019-02-23T13:47:57.851Z,39.90
2019-02-23T13:50:45.199Z,38.10
2019-02-23T13:53:29.539Z,38.20
2019-02-23T13:56:14.641Z,39.00
2019-02-23T13:58:56.185Z,39.80
2019-02-23T14:01:31.629Z,41.60
2019-02-23T14:04:31.765Z,42.70
2019-02-23T14:07:04.277Z,43.70
2019-02-23T14:09:39.726Z,43.80
2019-02-23T14:12:18.048Z,44.20
2019-02-23T14:15:07.343Z,45.40
2019-02-23T14:17:39.808Z,46.20
2019-02-23T14:20:15.108Z,46.10
2019-02-23T14:23:08.651Z,46.70
2019-02-23T14:26:02.242Z,47.10
2019-02-23T14:28:47.130Z,48.00
2019-02-23T14:31:31.833Z,47.20
2019-02-23T14:34:16.373Z,46.20
2019-02-23T14:37:03.447Z,45.70
2019-02-23T14:39:56.837Z,46.20
2019-02-23T14:42:52.965Z,47.10
2019-02-23T14:45:25.572Z,47.30
2019-02-23T14:48:20.452Z,47.00
2019-02-23T14:51:07.277Z,47.30
2019-02-23T14:53:57.849Z,47.90
2019-02-23T14:56:30.322Z,47.20
2019-02-23T14:59:18.220Z,46.20
2019-02-23T15:02:05.484Z,46.20
2019-02-23T15:04:50.089Z,47.10
2019-02-23T15:07:34.707Z,47.40
2019-02-23T15:10:23.888Z,47.40
2019-02-23T15:13:02.348Z,47.70
2019-02-23T15:15:34.830Z,47.80
2019-02-23T15:18:26.813Z,48.00
2019-02-23T15:21:11.141Z,48.90
2019-02-23T15:24:09.527Z,49.80
2019-02-23T15:27:03.341Z,51.20
2019-02-23T15:29:36.093Z,52.50
2019-02-23T15:32:31.286Z,53.00
2019-02-23T15:35:24.905Z,54.60
2019-02-23T15:38:16.886Z,55.10
2019-02-23T15:41:21.441Z,55.40
2019-02-23T15:44:02.755Z,56.10
2019-02-23T15:46:37.804Z,58.40
2019-02-23T15:49:29.481Z,58.40
2019-02-23T15:51:59.899Z,59.30
2019-02-23T15:54:29.420Z,60.30
2019-02-23T15:56:58.957Z,61.10
2019-02-23T15:59:28.364Z,61.50
2019-02-23T16:01:57.736Z,62.10
2019-02-23T16:04:27.294Z,63.60
2019-02-23T16:06:56.767Z,64.90
2019-02-23T16:09:26.179Z,66.20
2019-02-23T16:11:55.623Z,67.30
2019-02-23T16:14:24.993Z,68.30
2019-02-23T16:16:54.393Z,69.20
2019-02-23T16:19:23.759Z,70.60
2019-02-23T16:21:53.229Z,69.20
2019-02-23T16:24:23.216Z,70.10
2019-02-23T16:26:52.684Z,67.80
2019-02-23T16:29:22.067Z,67.80
2019-02-23T16:31:51.450Z,69.10
2019-02-23T16:34:20.866Z,68.10
2019-02-23T16:36:50.277Z,65.60
2019-02-23T16:39:19.658Z,65.80
2019-02-23T16:41:49.129Z,63.50
2019-02-23T16:44:18.519Z,63.40
2019-02-23T16:46:47.884Z,64.00
2019-02-23T16:49:17.319Z,63.70
2019-02-23T16:51:46.678Z,63.80
2019-02-23T16:54:16.072Z,64.50
2019-02-23T16:56:45.441Z,64.90
2019-02-23T16:59:14.817Z,65.20
2019-02-23T17:01:44.182Z,64.80
2019-02-23T17:04:13.567Z,64.90
2019-02-23T17:06:42.938Z,65.70
2019-02-23T17:09:12.390Z,66.00
2019-02-23T17:11:41.774Z,65.10
2019-02-23T17:14:11.185Z,65.20
2019-02-23T17:16:40.583Z,65.40
2019-02-23T17:19:09.959Z,65.20
2019-02-23T17:21:39.420Z,65.40
2019-02-23T17:24:08.792Z,65.60
2019-02-23T17:26:38.436Z,66.00
2019-02-23T17:29:07.885Z,66.30
2019-02-23T17:31:37.264Z,66.50
2019-02-23T17:34:06.721Z,67.10
2019-02-23T17:36:36.102Z,67.10
2019-02-23T17:39:05.799Z,67.30
2019-02-23T17:41:35.330Z,67.50
2019-02-23T17:44:04.719Z,67.50
2019-02-23T17:46:34.149Z,68.40
2019-02-23T17:49:03.530Z,69.50
2019-02-23T17:51:32.924Z,69.80
2019-02-23T17:54:02.369Z,69.90
2019-02-23T17:56:31.743Z,71.70
2019-02-23T17:59:01.124Z,73.30
2019-02-23T18:01:30.656Z,75.50
2019-02-23T18:04:00.109Z,75.70
2019-02-23T18:06:30.989Z,76.70
2019-02-23T18:09:01.238Z,79.00
2019-02-23T18:11:32.378Z,81.60
2019-02-23T18:14:01.842Z,83.50
2019-02-23T18:16:31.220Z,85.60
2019-02-23T18:19:02.393Z,88.60
2019-02-23T18:21:31.769Z,90.20
2019-02-23T18:24:01.145Z,92.00
2019-02-23T18:26:30.551Z,93.20
2019-02-23T18:28:59.981Z,94.30
2019-02-23T18:31:29.364Z,94.50
2019-02-23T18:33:58.812Z,95.50
2019-02-23T18:36:28.190Z,99.40
2019-02-23T18:38:57.580Z,99.90
2019-02-23T18:41:26.972Z,99.90
2019-02-23T18:43:56.365Z,99.90
2019-02-23T18:46:25.808Z,99.90
2019-02-23T18:48:55.190Z,99.90
2019-02-23T18:51:24.582Z,99.90
2019-02-23T18:53:54.043Z,99.90
2019-02-23T18:56:29.470Z,99.90
2019-02-23T18:58:54.543Z,99.90
2019-02-23T19:01:23.894Z,99.90
2019-02-23T19:03:53.282Z,99.90
2019-02-23T19:06:22.650Z,99.90
2019-02-23T19:08:52.135Z,99.90
2019-02-23T19:11:21.553Z,99.90
2019-02-23T19:13:51.053Z,99.90
2019-02-23T19:16:20.434Z,99.90
2019-02-23T19:18:49.863Z,99.90
2019-02-23T19:21:19.257Z,99.90
2019-02-23T19:23:48.650Z,99.90
2019-02-23T19:26:18.181Z,99.90
2019-02-23T19:28:47.543Z,99.90
2019-02-23T19:31:16.946Z,99.90
2019-02-23T19:33:47.747Z,99.90
2019-02-23T19:36:17.379Z,99.90
2019-02-23T19:38:46.773Z,99.90
2019-02-23T19:41:16.159Z,99.90
2019-02-23T19:43:45.534Z,99.90
2019-02-23T19:46:15.114Z,99.90
2019-02-23T19:48:44.591Z,99.90
2019-02-23T19:51:13.957Z,99.90
2019-02-23T19:53:43.796Z,99.90
2019-02-23T19:56:14.773Z,99.90
2019-02-23T19:58:44.168Z,99.90
2019-02-23T20:01:13.557Z,99.90
2019-02-23T20:03:42.974Z,99.90
2019-02-23T20:06:12.340Z,99.90
2019-02-23T20:08:41.742Z,99.90
2019-02-23T20:11:11.121Z,99.90
2019-02-23T20:13:40.494Z,99.90
2019-02-23T20:16:09.957Z,99.90
2019-02-23T20:18:41.017Z,99.90
2019-02-23T20:21:10.402Z,99.90
2019-02-23T20:23:44.025Z,99.90
2019-02-23T20:26:13.367Z,99.90
2019-02-23T20:28:42.804Z,99.90
2019-02-23T20:31:12.207Z,99.90
2019-02-23T20:33:41.582Z,99.90
2019-02-23T20:36:10.979Z,99.90
2019-02-23T20:38:40.450Z,99.90
2019-02-23T20:41:09.821Z,99.90
2019-02-23T20:43:39.201Z,99.90
2019-02-23T20:46:08.679Z,99.90
2019-02-23T20:48:38.160Z,99.90
2019-02-23T20:51:07.621Z,99.90
2019-02-23T20:53:37.009Z,99.90
2019-02-23T20:56:06.465Z,99.90
2019-02-23T20:58:35.874Z,99.90
2019-02-23T21:01:05.320Z,99.90
2019-02-23T21:03:34.713Z,99.90
2019-02-23T21:06:04.085Z,99.90
2019-02-23T21:08:33.557Z,99.90
2019-02-23T21:11:03.013Z,99.90
2019-02-23T21:13:32.384Z,99.90
2019-02-23T21:16:01.775Z,99.90
2019-02-23T21:18:31.166Z,99.90
2019-02-23T21:21:00.600Z,99.90
2019-02-23T21:23:30.007Z,99.90
2019-02-23T21:25:59.404Z,99.90
2019-02-23T21:28:28.773Z,99.90
2019-02-23T21:30:58.175Z,99.90
2019-02-23T21:33:27.545Z,99.90
2019-02-23T21:35:57.015Z,99.90
2019-02-23T21:38:26.458Z,99.90
2019-02-23T21:40:55.832Z,99.90
2019-02-23T21:43:25.288Z,99.90
2019-02-23T21:45:54.708Z,99.90
2019-02-23T21:48:24.162Z,99.90
2019-02-23T21:50:53.530Z,99.90
2019-02-23T21:53:22.908Z,99.90
2019-02-23T21:55:52.278Z,99.90
2019-02-23T21:58:21.679Z,99.90
2019-02-23T22:00:51.072Z,99.90
2019-02-23T22:03:20.443Z,99.90
2019-02-23T22:05:49.849Z,99.90
2019-02-23T22:08:19.317Z,99.90
2019-02-23T22:10:48.750Z,99.90
2019-02-23T22:13:18.147Z,99.90
2019-02-23T22:15:47.505Z,99.90
2019-02-23T22:18:18.444Z,99.90
2019-02-23T22:20:47.884Z,99.90
2019-02-23T22:23:17.349Z,99.90
2019-02-23T22:25:46.729Z,99.90
2019-02-23T22:28:16.187Z,99.90
2019-02-23T22:30:45.613Z,99.90
2019-02-23T22:33:15.147Z,99.90
2019-02-23T22:35:44.593Z,99.90
2019-02-23T22:38:13.961Z,99.90
2019-02-23T22:40:43.362Z,99.90
2019-02-23T22:43:12.755Z,99.90
2019-02-23T22:45:42.189Z,99.90
2019-02-23T22:48:11.553Z,99.90
2019-02-23T22:50:40.920Z,99.90
2019-02-23T22:53:10.313Z,99.90
2019-02-23T22:55:39.719Z,99.90
2019-02-23T22:58:09.105Z,99.90
2019-02-23T23:00:58.218Z,99.90
2019-02-23T23:03:27.627Z,99.90
2019-02-23T23:05:57.001Z,99.90
2019-02-23T23:08:26.472Z,99.90
2019-02-23T23:10:55.936Z,99.90
2019-02-23T23:13:25.441Z,99.90
2019-02-23T23:15:54.821Z,99.90
2019-02-23T23:18:24.237Z,99.90
2019-02-23T23:20:53.653Z,99.90
2019-02-23T23:23:23.028Z,99.90
2019-02-23T23:25:52.505Z,99.90
2019-02-23T23:28:21.885Z,99.90
2019-02-23T23:30:51.287Z,99.90
2019-02-23T23:33:20.672Z,99.90
2019-02-23T23:35:50.040Z,99.90
2019-02-23T23:38:19.432Z,99.90
2019-02-23T23:40:48.818Z,99.90
2019-02-23T23:43:18.214Z,99.90
2019-02-23T23:45:47.674Z,99.90
2019-02-23T23:48:17.075Z,99.90
2019-02-23T23:50:46.462Z,99.90
2019-02-23T23:53:15.842Z,99.90
2019-02-23T23:55:45.210Z,99.90
2019-02-23T23:58:14.592Z,99.90
